Terminal Aerodrome Forecast
Issued by NWS

Home | Current Version | Previous Version | Graphics & Text | Print | Product List | Glossary On
Versions: 1 2 3 4 5 6 7 8 9 10 11 12 13 14 15 16 17 18 19
657
FTUS43 KDLH 111736
TAFHIB
TAF
KHIB 111736Z 1118/1218 VRB04KT P6SM BKN080
     FM112200 30005KT P6SM BKN035 BKN050
     FM120500 30008KT P6SM SCT035
     FM121000 33012G30KT P6SM FEW025=

USA.gov is the U.S. government's official web portal to all federal, state and local government web resources and services.